createdAt,value
2018-05-09T00:00:11.447Z,0.00
2018-05-09T00:02:03.211Z,0.00
2018-05-09T00:03:03.150Z,0.00
2018-05-09T00:04:54.911Z,0.00
2018-05-09T00:05:54.846Z,0.00
2018-05-09T00:07:46.597Z,0.00
2018-05-09T00:08:46.541Z,0.00
2018-05-09T00:10:38.293Z,0.00
2018-05-09T00:11:38.266Z,0.00
2018-05-09T00:13:30.024Z,0.00
2018-05-09T00:14:29.934Z,0.00
2018-05-09T00:16:21.697Z,0.00
2018-05-09T00:17:21.636Z,0.00
2018-05-09T00:19:13.610Z,0.00
2018-05-09T00:20:13.536Z,0.00
2018-05-09T00:22:05.294Z,0.00
2018-05-09T00:23:05.237Z,0.00
2018-05-09T00:24:57.001Z,0.00
2018-05-09T00:25:56.938Z,0.00
2018-05-09T00:27:48.686Z,0.00
2018-05-09T00:28:48.622Z,0.00
2018-05-09T00:30:40.396Z,0.00
2018-05-09T00:31:40.316Z,0.00
2018-05-09T00:33:32.076Z,0.00
2018-05-09T00:34:32.013Z,0.00
2018-05-09T00:36:23.786Z,0.00
2018-05-09T00:37:23.713Z,0.00
2018-05-09T00:39:15.513Z,0.00
2018-05-09T00:40:15.442Z,0.00
2018-05-09T00:42:07.228Z,0.00
2018-05-09T00:43:07.167Z,0.00
2018-05-09T00:44:58.964Z,0.00
2018-05-09T00:45:58.889Z,0.00
2018-05-09T00:47:50.674Z,0.00
2018-05-09T00:48:50.611Z,0.00
2018-05-09T00:50:42.412Z,0.00
2018-05-09T00:51:42.338Z,0.00
2018-05-09T00:53:34.124Z,0.00
2018-05-09T00:54:34.065Z,0.00
2018-05-09T00:56:25.845Z,0.00
2018-05-09T00:57:25.772Z,0.00
2018-05-09T00:59:17.556Z,0.00
2018-05-09T01:00:17.473Z,0.00
2018-05-09T01:02:09.223Z,0.00
2018-05-09T01:03:09.167Z,0.00
2018-05-09T01:05:00.938Z,0.00
2018-05-09T01:06:00.865Z,0.00
2018-05-09T01:07:52.617Z,0.00
2018-05-09T01:08:52.551Z,0.00
2018-05-09T01:10:44.347Z,0.00
2018-05-09T01:11:44.265Z,0.00
2018-05-09T01:13:36.041Z,0.00
2018-05-09T01:14:35.971Z,0.00
2018-05-09T01:16:27.729Z,0.00
2018-05-09T01:17:27.662Z,0.00
2018-05-09T01:19:19.423Z,0.00
2018-05-09T01:20:19.363Z,0.00
2018-05-09T01:22:11.194Z,0.00
2018-05-09T01:23:11.066Z,0.00
2018-05-09T01:25:02.866Z,0.00
2018-05-09T01:26:02.798Z,0.00
2018-05-09T01:27:54.552Z,0.00
2018-05-09T01:28:54.493Z,0.00
2018-05-09T01:30:46.257Z,0.00
2018-05-09T01:31:46.177Z,0.00
2018-05-09T01:33:37.943Z,0.00
2018-05-09T01:34:37.890Z,0.00
2018-05-09T01:36:29.658Z,0.00
2018-05-09T01:37:29.586Z,0.00
2018-05-09T01:39:21.390Z,0.00
2018-05-09T01:40:21.308Z,0.00
2018-05-09T01:42:13.105Z,0.00
2018-05-09T01:43:13.058Z,0.00
2018-05-09T01:45:04.821Z,0.00
2018-05-09T01:46:04.762Z,0.00
2018-05-09T01:47:56.557Z,0.00
2018-05-09T01:48:56.488Z,0.00
2018-05-09T01:50:48.286Z,0.00
2018-05-09T01:51:48.213Z,0.00
2018-05-09T01:53:40.046Z,0.00
2018-05-09T01:54:39.972Z,0.00
2018-05-09T01:56:31.778Z,0.00
2018-05-09T01:57:31.703Z,0.00
2018-05-09T01:59:23.459Z,0.00
2018-05-09T02:00:23.398Z,0.00
2018-05-09T02:02:15.182Z,0.00
2018-05-09T02:03:15.111Z,0.00
2018-05-09T02:05:06.865Z,0.00
2018-05-09T02:06:06.802Z,0.00
2018-05-09T02:07:58.559Z,0.00
2018-05-09T02:08:58.486Z,0.00
2018-05-09T02:10:50.260Z,0.00
2018-05-09T02:11:50.182Z,0.00
2018-05-09T02:13:41.961Z,0.00
2018-05-09T02:14:41.880Z,0.00
2018-05-09T02:16:33.686Z,0.00
2018-05-09T02:17:33.697Z,0.00
2018-05-09T02:19:25.362Z,0.00
2018-05-09T02:20:25.304Z,0.00
2018-05-09T02:22:17.060Z,0.00
2018-05-09T02:23:17.004Z,0.00
2018-05-09T02:25:08.766Z,0.00
2018-05-09T02:26:08.705Z,0.00
2018-05-09T02:28:00.499Z,0.00
2018-05-09T02:29:00.430Z,0.00
2018-05-09T02:30:52.240Z,0.00
2018-05-09T02:31:52.160Z,0.00
2018-05-09T02:33:43.945Z,0.00
2018-05-09T02:34:43.853Z,0.00
2018-05-09T02:36:35.624Z,0.00
2018-05-09T02:37:35.550Z,0.00
2018-05-09T02:39:27.298Z,0.00
2018-05-09T02:40:27.236Z,0.00
2018-05-09T02:42:19.027Z,0.00
2018-05-09T02:43:18.957Z,0.00
2018-05-09T02:45:10.702Z,0.00
2018-05-09T02:46:10.655Z,4.00
2018-05-09T02:48:02.429Z,0.00
2018-05-09T02:49:02.334Z,0.00
2018-05-09T02:50:54.104Z,4.00
2018-05-09T02:51:54.040Z,0.00
2018-05-09T02:53:45.814Z,4.00
2018-05-09T02:54:45.740Z,4.00
2018-05-09T02:56:37.504Z,4.00
2018-05-09T02:57:37.437Z,4.00
2018-05-09T02:59:29.183Z,8.00
2018-05-09T03:00:29.126Z,12.00
2018-05-09T03:02:20.953Z,12.00
2018-05-09T03:03:20.880Z,12.00
2018-05-09T03:05:12.642Z,20.00
2018-05-09T03:06:12.587Z,20.00
2018-05-09T03:08:04.350Z,24.00
2018-05-09T03:09:04.276Z,28.00
2018-05-09T03:10:56.032Z,32.00
2018-05-09T03:11:55.960Z,36.00
2018-05-09T03:13:47.718Z,44.00
2018-05-09T03:14:47.645Z,48.00
2018-05-09T03:16:39.402Z,56.00
2018-05-09T03:17:39.339Z,64.00
2018-05-09T03:19:31.098Z,72.00
2018-05-09T03:20:31.036Z,80.00
2018-05-09T03:22:22.824Z,92.00
2018-05-09T03:23:22.752Z,100.00
2018-05-09T03:25:14.506Z,112.00
2018-05-09T03:26:14.444Z,124.00
2018-05-09T03:28:06.208Z,140.00
2018-05-09T03:29:06.138Z,148.00
2018-05-09T03:30:57.890Z,168.00
2018-05-09T03:31:57.828Z,180.00
2018-05-09T03:33:49.598Z,196.00
2018-05-09T03:34:49.535Z,208.00
2018-05-09T03:36:41.281Z,232.00
2018-05-09T03:37:41.216Z,240.00
2018-05-09T03:39:32.989Z,264.00
2018-05-09T03:40:32.919Z,276.00
2018-05-09T03:42:24.689Z,304.00
2018-05-09T03:43:24.613Z,320.00
2018-05-09T03:45:16.361Z,344.00
2018-05-09T03:46:16.302Z,360.00
2018-05-09T03:48:08.060Z,388.00
2018-05-09T03:49:07.993Z,404.00
2018-05-09T03:50:59.754Z,436.00
2018-05-09T03:51:59.694Z,452.00
2018-05-09T03:53:51.453Z,480.00
2018-05-09T03:54:51.388Z,496.00
2018-05-09T03:56:43.153Z,524.00
2018-05-09T03:57:43.093Z,544.00
2018-05-09T03:59:34.865Z,572.00
2018-05-09T04:00:34.791Z,592.00
2018-05-09T04:02:26.572Z,620.00
2018-05-09T04:03:26.507Z,640.00
2018-05-09T04:05:18.319Z,668.00
2018-05-09T04:06:18.204Z,688.00
2018-05-09T04:08:09.976Z,716.00
2018-05-09T04:09:09.899Z,732.00
2018-05-09T04:11:01.653Z,764.00
2018-05-09T04:12:01.598Z,780.00
2018-05-09T04:13:53.368Z,812.00
2018-05-09T04:14:53.324Z,828.00
2018-05-09T04:16:45.062Z,856.00
2018-05-09T04:17:45.000Z,876.00
2018-05-09T04:19:36.773Z,904.00
2018-05-09T04:20:36.782Z,920.00
2018-05-09T04:22:28.469Z,948.00
2018-05-09T04:23:28.417Z,964.00
2018-05-09T04:25:20.200Z,996.00
2018-05-09T04:26:20.097Z,1004.00
2018-05-09T04:28:11.948Z,1040.00
2018-05-09T04:29:11.800Z,1052.00
2018-05-09T04:31:03.574Z,1080.00
2018-05-09T04:32:03.502Z,1096.00
2018-05-09T04:33:55.473Z,1124.00
2018-05-09T04:34:55.215Z,1136.00
2018-05-09T04:36:47.008Z,1164.00
2018-05-09T04:37:46.931Z,1184.00
2018-05-09T04:39:38.805Z,1208.00
2018-05-09T04:40:38.711Z,1224.00
2018-05-09T04:42:30.542Z,1252.00
2018-05-09T04:43:30.444Z,1268.00
2018-05-09T04:45:22.543Z,1296.00
2018-05-09T04:46:22.173Z,1316.00
2018-05-09T04:48:13.922Z,1340.00
2018-05-09T04:49:13.896Z,1356.00
2018-05-09T04:51:05.643Z,1392.00
2018-05-09T04:52:05.554Z,1420.00
2018-05-09T04:53:57.544Z,1500.00
2018-05-09T04:54:57.490Z,1548.00
2018-05-09T04:56:49.240Z,1648.00
2018-05-09T04:57:49.164Z,1684.00
2018-05-09T04:59:40.947Z,1776.00
2018-05-09T05:00:40.945Z,1868.00
2018-05-09T05:02:32.675Z,2120.00
2018-05-09T05:03:32.573Z,2316.00
2018-05-09T05:05:24.670Z,2660.00
2018-05-09T05:06:24.536Z,2856.00
2018-05-09T05:08:16.208Z,3324.00
2018-05-09T05:09:16.148Z,3544.00
2018-05-09T05:11:07.934Z,4052.00
2018-05-09T05:12:07.924Z,4388.00
2018-05-09T05:13:59.611Z,4828.00
2018-05-09T05:14:59.553Z,5012.00
2018-05-09T05:16:51.332Z,5288.00
2018-05-09T05:17:51.267Z,5556.00
2018-05-09T05:19:43.223Z,5736.00
2018-05-09T05:20:42.999Z,5920.00
2018-05-09T05:22:34.764Z,6184.00
2018-05-09T05:23:34.709Z,6456.00
2018-05-09T05:25:26.499Z,6688.00
2018-05-09T05:26:26.420Z,6788.00
2018-05-09T05:28:18.220Z,6868.00
2018-05-09T05:29:18.183Z,6940.00
2018-05-09T05:31:09.949Z,7036.00
2018-05-09T05:32:09.872Z,7028.00
2018-05-09T05:34:01.675Z,7068.00
2018-05-09T05:35:01.777Z,7076.00
2018-05-09T05:36:53.387Z,7228.00
2018-05-09T05:37:53.310Z,7212.00
2018-05-09T05:39:45.120Z,7244.00
2018-05-09T05:40:45.068Z,7376.00
2018-05-09T05:42:36.879Z,7476.00
2018-05-09T05:43:36.808Z,7548.00
2018-05-09T05:45:28.631Z,7656.00
2018-05-09T05:46:28.550Z,7668.00
2018-05-09T05:48:20.304Z,7680.00
2018-05-09T05:49:20.245Z,7768.00
2018-05-09T05:51:12.053Z,7756.00
2018-05-09T05:52:11.966Z,7700.00
2018-05-09T05:54:03.766Z,7860.00
2018-05-09T05:55:03.750Z,7916.00
2018-05-09T05:56:55.463Z,8000.00
2018-05-09T05:57:55.387Z,7928.00
2018-05-09T05:59:47.181Z,8024.00
2018-05-09T06:00:47.136Z,8032.00
2018-05-09T06:02:38.944Z,7792.00
2018-05-09T06:03:38.846Z,7972.00
2018-05-09T06:05:30.709Z,8148.00
2018-05-09T06:06:30.746Z,8180.00
2018-05-09T06:08:22.441Z,8268.00
2018-05-09T06:09:22.344Z,8248.00
2018-05-09T06:11:14.158Z,8372.00
2018-05-09T06:12:14.089Z,8480.00
2018-05-09T06:14:05.876Z,8728.00
2018-05-09T06:15:05.801Z,8988.00
2018-05-09T06:16:57.631Z,9848.00
2018-05-09T06:17:57.515Z,10404.00
2018-05-09T06:19:49.348Z,10292.00
2018-05-09T06:20:49.271Z,10200.00
2018-05-09T06:22:41.151Z,10296.00
2018-05-09T06:23:41.079Z,9848.00
2018-05-09T06:25:32.910Z,9820.00
2018-05-09T06:26:32.837Z,9748.00
2018-05-09T06:28:24.686Z,11000.00
2018-05-09T06:29:24.645Z,11304.00
2018-05-09T06:31:16.483Z,10240.00
2018-05-09T06:32:16.415Z,10704.00
2018-05-09T06:34:08.181Z,13632.00
2018-05-09T06:35:08.118Z,13792.00
2018-05-09T06:37:00.015Z,14048.00
2018-05-09T06:37:59.915Z,14304.00
2018-05-09T06:39:51.774Z,15680.00
2018-05-09T06:40:51.779Z,16320.00
2018-05-09T06:42:43.661Z,15008.00
2018-05-09T06:43:43.566Z,15840.00
2018-05-09T06:45:35.267Z,17984.00
2018-05-09T06:46:35.244Z,18272.00
2018-05-09T06:48:27.030Z,19040.00
2018-05-09T06:49:26.954Z,18624.00
2018-05-09T06:51:18.999Z,19200.00
2018-05-09T06:52:18.725Z,20096.00
2018-05-09T06:54:10.569Z,20288.00
2018-05-09T06:55:10.457Z,19360.00
2018-05-09T06:57:02.355Z,19040.00
2018-05-09T06:58:02.312Z,19296.00
2018-05-09T06:59:54.149Z,17024.00
2018-05-09T07:00:54.055Z,18336.00
2018-05-09T07:02:45.941Z,20416.00
2018-05-09T07:03:45.886Z,20928.00
2018-05-09T07:05:37.673Z,21408.00
2018-05-09T07:06:37.816Z,20224.00
2018-05-09T07:08:29.428Z,20192.00
2018-05-09T07:09:29.346Z,21824.00
2018-05-09T07:11:21.222Z,23072.00
2018-05-09T07:12:21.139Z,20512.00
2018-05-09T07:14:13.059Z,18816.00
2018-05-09T07:15:12.993Z,20256.00
2018-05-09T07:17:04.861Z,21760.00
2018-05-09T07:18:04.815Z,23904.00
2018-05-09T07:19:56.677Z,19232.00
2018-05-09T07:20:56.707Z,19712.00
2018-05-09T07:22:48.377Z,14528.00
2018-05-09T07:23:48.334Z,15008.00
2018-05-09T07:25:40.144Z,20480.00
2018-05-09T07:26:40.080Z,20960.00
2018-05-09T07:28:31.861Z,20576.00
2018-05-09T07:29:31.873Z,18176.00
2018-05-09T07:31:23.675Z,20096.00
2018-05-09T07:32:23.619Z,18592.00
2018-05-09T07:34:15.532Z,22272.00
2018-05-09T07:35:15.375Z,23744.00
2018-05-09T07:37:07.211Z,17184.00
2018-05-09T07:38:07.124Z,13108.00
2018-05-09T07:39:58.961Z,15616.00
2018-05-09T07:40:59.013Z,12756.00
2018-05-09T07:42:50.706Z,20224.00
2018-05-09T07:43:50.633Z,20160.00
2018-05-09T07:45:42.625Z,10308.00
2018-05-09T07:46:42.562Z,13232.00
2018-05-09T07:48:34.256Z,9968.00
2018-05-09T07:49:34.198Z,8976.00
2018-05-09T07:51:26.036Z,9468.00
2018-05-09T07:52:25.977Z,9720.00
2018-05-09T07:54:17.965Z,9408.00
2018-05-09T07:55:17.846Z,9860.00
2018-05-09T07:57:09.638Z,10656.00
2018-05-09T07:58:09.706Z,11280.00
2018-05-09T08:00:01.405Z,12420.00
2018-05-09T08:01:01.317Z,14944.00
2018-05-09T08:02:53.853Z,19296.00
2018-05-09T08:03:53.154Z,15104.00
2018-05-09T08:05:44.867Z,11588.00
2018-05-09T08:06:44.835Z,10656.00
2018-05-09T08:08:36.625Z,14600.00
2018-05-09T08:09:36.561Z,20288.00
2018-05-09T08:11:28.396Z,15040.00
2018-05-09T08:12:28.295Z,15328.00
2018-05-09T08:14:20.108Z,12568.00
2018-05-09T08:15:20.047Z,16768.00
2018-05-09T08:17:11.822Z,11072.00
2018-05-09T08:18:11.835Z,16768.00
2018-05-09T08:20:03.688Z,19744.00
2018-05-09T08:21:03.519Z,18144.00
2018-05-09T08:22:55.328Z,19200.00
2018-05-09T08:23:55.356Z,15776.00
2018-05-09T08:25:47.098Z,15200.00
2018-05-09T08:26:47.035Z,14240.00
2018-05-09T08:28:38.906Z,13920.00
2018-05-09T08:29:38.850Z,13772.00
2018-05-09T08:31:30.673Z,11588.00
2018-05-09T08:32:30.555Z,10912.00
2018-05-09T08:34:22.332Z,10776.00
2018-05-09T08:35:22.272Z,10416.00
2018-05-09T08:37:14.106Z,11004.00
2018-05-09T08:38:14.118Z,10632.00
2018-05-09T08:40:05.838Z,5364.00
2018-05-09T08:41:05.787Z,11664.00
2018-05-09T08:42:57.600Z,10244.00
2018-05-09T08:43:57.692Z,10580.00
2018-05-09T08:45:49.389Z,11020.00
2018-05-09T08:46:49.290Z,11804.00
2018-05-09T08:48:41.141Z,11396.00
2018-05-09T08:49:41.040Z,12104.00
2018-05-09T08:51:32.838Z,12104.00
2018-05-09T08:52:32.838Z,11884.00
2018-05-09T08:54:24.691Z,12584.00
2018-05-09T08:55:24.576Z,12680.00
2018-05-09T08:57:16.371Z,12968.00
2018-05-09T08:58:16.300Z,13288.00
2018-05-09T09:00:08.239Z,13592.00
2018-05-09T09:01:08.106Z,11468.00
2018-05-09T09:02:59.950Z,13440.00
2018-05-09T09:03:59.897Z,14176.00
2018-05-09T09:05:51.764Z,14048.00
2018-05-09T09:06:51.698Z,13288.00
2018-05-09T09:08:43.518Z,11060.00
2018-05-09T09:09:43.466Z,10484.00
2018-05-09T09:11:35.282Z,11124.00
2018-05-09T09:12:35.222Z,24160.00
2018-05-09T09:14:27.006Z,9936.00
2018-05-09T09:15:27.028Z,12284.00
2018-05-09T09:17:18.763Z,9552.00
2018-05-09T09:18:18.857Z,19968.00
2018-05-09T09:20:10.509Z,22176.00
2018-05-09T09:21:10.459Z,10648.00
2018-05-09T09:23:02.332Z,11224.00
2018-05-09T09:24:02.286Z,20928.00
2018-05-09T09:25:54.084Z,23552.00
2018-05-09T09:26:54.023Z,29984.00
2018-05-09T09:28:45.860Z,0.00
2018-05-09T09:29:45.798Z,39776.00
2018-05-09T09:31:37.700Z,40224.00
2018-05-09T09:32:37.541Z,35488.00
2018-05-09T09:34:29.375Z,39616.00
2018-05-09T09:35:29.323Z,42848.00
2018-05-09T09:37:21.136Z,38176.00
2018-05-09T09:38:21.092Z,36992.00
2018-05-09T09:40:12.907Z,38816.00
2018-05-09T09:41:12.835Z,38848.00
2018-05-09T09:43:04.610Z,51392.00
2018-05-09T09:44:04.647Z,28896.00
2018-05-09T09:45:56.497Z,35232.00
2018-05-09T09:46:56.364Z,11856.00
2018-05-09T09:48:48.296Z,46944.00
2018-05-09T09:49:48.296Z,44352.00
2018-05-09T09:51:40.046Z,32960.00
2018-05-09T09:52:39.897Z,25728.00
2018-05-09T09:54:31.688Z,27520.00
2018-05-09T09:55:31.624Z,63552.00
2018-05-09T09:57:23.451Z,32608.00
2018-05-09T09:58:23.387Z,69312.00
2018-05-09T10:00:15.322Z,24608.00
2018-05-09T10:01:15.259Z,47648.00
2018-05-09T10:03:07.067Z,68480.00
2018-05-09T10:04:07.026Z,45984.00
2018-05-09T10:05:58.822Z,41984.00
2018-05-09T10:06:58.842Z,35520.00
2018-05-09T10:08:50.680Z,39168.00
2018-05-09T10:09:50.626Z,9384.00
2018-05-09T10:11:42.435Z,49344.00
2018-05-09T10:12:42.411Z,16220.00
2018-05-09T10:14:34.420Z,23136.00
2018-05-09T10:15:34.268Z,46528.00
2018-05-09T10:17:26.102Z,48384.00
2018-05-09T10:18:26.192Z,0.00
2018-05-09T10:20:17.870Z,63136.00
2018-05-09T10:21:17.836Z,46112.00
2018-05-09T10:23:09.619Z,47232.00
2018-05-09T10:24:09.502Z,47136.00
2018-05-09T10:26:01.375Z,46112.00
2018-05-09T10:27:01.285Z,0.00
2018-05-09T10:28:53.048Z,52256.00
2018-05-09T10:29:53.068Z,46880.00
2018-05-09T10:31:44.833Z,50272.00
2018-05-09T10:32:44.778Z,52672.00
2018-05-09T10:34:36.588Z,45632.00
2018-05-09T10:35:36.712Z,48288.00
2018-05-09T10:37:28.390Z,50848.00
2018-05-09T10:38:28.289Z,0.00
2018-05-09T10:40:20.101Z,68608.00
2018-05-09T10:41:20.014Z,53280.00
2018-05-09T10:43:11.835Z,10752.00
2018-05-09T10:44:11.775Z,29280.00
2018-05-09T10:46:03.667Z,54400.00
2018-05-09T10:47:03.546Z,54624.00
2018-05-09T10:48:55.444Z,53472.00
2018-05-09T10:49:55.384Z,54688.00
2018-05-09T10:51:47.191Z,55616.00
2018-05-09T10:52:47.135Z,53696.00
2018-05-09T10:54:38.943Z,0.00
2018-05-09T10:55:38.909Z,48992.00
2018-05-09T10:57:30.908Z,47424.00
2018-05-09T10:58:30.724Z,49056.00
2018-05-09T11:00:22.518Z,53600.00
2018-05-09T11:01:22.454Z,55040.00
2018-05-09T11:03:14.276Z,52640.00
2018-05-09T11:04:14.230Z,50720.00
2018-05-09T11:06:06.030Z,13536.00
2018-05-09T11:07:06.123Z,31200.00
2018-05-09T11:08:57.906Z,5364.00
2018-05-09T11:09:57.817Z,5200.00
2018-05-09T11:11:49.636Z,5272.00
2018-05-09T11:12:49.554Z,6028.00
2018-05-09T11:14:41.356Z,3920.00
2018-05-09T11:15:41.347Z,3588.00
2018-05-09T11:17:33.195Z,4896.00
2018-05-09T11:18:33.033Z,4560.00
2018-05-09T11:20:24.839Z,4364.00
2018-05-09T11:21:24.786Z,4280.00
2018-05-09T11:23:16.834Z,4212.00
2018-05-09T11:24:16.570Z,4192.00
2018-05-09T11:26:08.387Z,5168.00
2018-05-09T11:27:08.360Z,4788.00
2018-05-09T11:29:00.306Z,4408.00
2018-05-09T11:30:00.160Z,4532.00
2018-05-09T11:31:52.005Z,4148.00
2018-05-09T11:32:51.981Z,4088.00
2018-05-09T11:34:43.765Z,4856.00
2018-05-09T11:35:43.681Z,5260.00
2018-05-09T11:37:35.485Z,4712.00
2018-05-09T11:38:35.453Z,3980.00
2018-05-09T11:40:27.257Z,4168.00
2018-05-09T11:41:27.218Z,4356.00
2018-05-09T11:43:18.958Z,3744.00
2018-05-09T11:44:18.952Z,3680.00
2018-05-09T11:46:10.849Z,3756.00
2018-05-09T11:47:10.678Z,3808.00
2018-05-09T11:49:02.510Z,3328.00
2018-05-09T11:50:02.408Z,3512.00
2018-05-09T11:51:54.281Z,3732.00
2018-05-09T11:52:54.164Z,3148.00
2018-05-09T11:54:45.945Z,3836.00
2018-05-09T11:55:45.853Z,3912.00
2018-05-09T11:57:37.705Z,4208.00
2018-05-09T11:58:37.714Z,4616.00
2018-05-09T12:00:29.535Z,5224.00
2018-05-09T12:01:29.347Z,4980.00
2018-05-09T12:03:21.194Z,5540.00
2018-05-09T12:04:21.117Z,5692.00
2018-05-09T12:06:12.936Z,5972.00
2018-05-09T12:07:12.907Z,6260.00
2018-05-09T12:09:04.800Z,5612.00
2018-05-09T12:10:04.774Z,5656.00
2018-05-09T12:11:56.548Z,5124.00
2018-05-09T12:12:56.490Z,4928.00
2018-05-09T12:14:48.283Z,5252.00
2018-05-09T12:15:48.225Z,5280.00
2018-05-09T12:17:40.079Z,5260.00
2018-05-09T12:18:40.015Z,5724.00
2018-05-09T12:20:32.093Z,6440.00
2018-05-09T12:21:31.872Z,6008.00
2018-05-09T12:23:23.828Z,5592.00
2018-05-09T12:24:23.657Z,5672.00
2018-05-09T12:26:15.565Z,5384.00
2018-05-09T12:27:15.646Z,5512.00
2018-05-09T12:29:07.312Z,5196.00
2018-05-09T12:30:07.238Z,5460.00
2018-05-09T12:31:59.049Z,5196.00
2018-05-09T12:32:58.964Z,5516.00
2018-05-09T12:34:50.782Z,5096.00
2018-05-09T12:35:50.708Z,5500.00
2018-05-09T12:37:42.499Z,5292.00
2018-05-09T12:38:42.437Z,5404.00
2018-05-09T12:40:34.349Z,5396.00
2018-05-09T12:41:34.223Z,4776.00
2018-05-09T12:43:26.029Z,4372.00
2018-05-09T12:44:25.968Z,4696.00
2018-05-09T12:46:17.887Z,4824.00
2018-05-09T12:47:17.738Z,5080.00
2018-05-09T12:49:09.623Z,5128.00
2018-05-09T12:50:09.460Z,4908.00
2018-05-09T12:52:01.286Z,4756.00
2018-05-09T12:53:01.168Z,4604.00
2018-05-09T12:54:53.003Z,4700.00
2018-05-09T12:55:52.987Z,4252.00
2018-05-09T12:57:44.964Z,3868.00
2018-05-09T12:58:44.658Z,2900.00
2018-05-09T13:00:36.433Z,2284.00
2018-05-09T13:01:36.369Z,2196.00
2018-05-09T13:03:28.216Z,2440.00
2018-05-09T13:04:28.158Z,2620.00
2018-05-09T13:06:19.917Z,2868.00
2018-05-09T13:07:19.847Z,2732.00
2018-05-09T13:09:11.639Z,2844.00
2018-05-09T13:10:11.576Z,3068.00
2018-05-09T13:12:03.447Z,3516.00
2018-05-09T13:13:03.352Z,3496.00
2018-05-09T13:14:55.177Z,3480.00
2018-05-09T13:15:55.064Z,3436.00
2018-05-09T13:17:46.899Z,3592.00
2018-05-09T13:18:46.868Z,3748.00
2018-05-09T13:20:38.616Z,4112.00
2018-05-09T13:21:38.776Z,4032.00
2018-05-09T13:23:30.443Z,3804.00
2018-05-09T13:24:30.301Z,3464.00
2018-05-09T13:26:22.176Z,2976.00
2018-05-09T13:27:22.063Z,2836.00
2018-05-09T13:29:13.940Z,3188.00
2018-05-09T13:30:13.955Z,3432.00
2018-05-09T13:32:05.665Z,3992.00
2018-05-09T13:33:05.594Z,3932.00
2018-05-09T13:34:57.409Z,3772.00
2018-05-09T13:35:57.376Z,3864.00
2018-05-09T13:37:49.131Z,3856.00
2018-05-09T13:38:49.080Z,3504.00
2018-05-09T13:40:40.846Z,2740.00
2018-05-09T13:41:40.828Z,3064.00
2018-05-09T13:43:32.642Z,3064.00
2018-05-09T13:44:32.588Z,2920.00
2018-05-09T13:46:24.599Z,3032.00
2018-05-09T13:47:24.450Z,3368.00
2018-05-09T13:49:16.424Z,3016.00
2018-05-09T13:50:16.186Z,3508.00
2018-05-09T13:52:07.995Z,2740.00
2018-05-09T13:53:08.097Z,2880.00
2018-05-09T13:54:59.802Z,2156.00
2018-05-09T13:55:59.739Z,2000.00
2018-05-09T13:57:51.443Z,2040.00
2018-05-09T13:58:51.371Z,2160.00
2018-05-09T14:00:43.349Z,2120.00
2018-05-09T14:01:43.188Z,2128.00
2018-05-09T14:03:35.137Z,2636.00
2018-05-09T14:04:34.935Z,2568.00
2018-05-09T14:06:26.942Z,2624.00
2018-05-09T14:07:26.698Z,2852.00
2018-05-09T14:09:18.614Z,2672.00
2018-05-09T14:10:18.503Z,2656.00
2018-05-09T14:12:10.416Z,2496.00
2018-05-09T14:13:10.218Z,2392.00
2018-05-09T14:15:02.110Z,2376.00
2018-05-09T14:16:02.125Z,2424.00
2018-05-09T14:17:53.859Z,2448.00
2018-05-09T14:18:53.884Z,2368.00
2018-05-09T14:20:45.718Z,2504.00
2018-05-09T14:21:45.627Z,2532.00
2018-05-09T14:23:37.554Z,2712.00
2018-05-09T14:24:37.492Z,2788.00
2018-05-09T14:26:29.493Z,2628.00
2018-05-09T14:27:29.207Z,2564.00
2018-05-09T14:29:20.990Z,2532.00
2018-05-09T14:30:20.941Z,2600.00
2018-05-09T14:32:12.871Z,2640.00
2018-05-09T14:33:12.697Z,2600.00
2018-05-09T14:35:04.488Z,2816.00
2018-05-09T14:36:04.408Z,2888.00
2018-05-09T14:37:56.234Z,2560.00
2018-05-09T14:38:56.199Z,2564.00
2018-05-09T14:40:48.308Z,2596.00
2018-05-09T14:41:48.134Z,2452.00
2018-05-09T14:43:39.912Z,2192.00
2018-05-09T14:44:39.858Z,2148.00
2018-05-09T14:46:31.697Z,2216.00
2018-05-09T14:47:31.567Z,1928.00
2018-05-09T14:49:23.349Z,1932.00
2018-05-09T14:50:23.293Z,1924.00
2018-05-09T14:52:15.094Z,2312.00
2018-05-09T14:53:15.108Z,1944.00
2018-05-09T14:55:06.809Z,2524.00
2018-05-09T14:56:06.770Z,2484.00
2018-05-09T14:57:58.632Z,2328.00
2018-05-09T14:58:58.583Z,2324.00
2018-05-09T15:00:50.530Z,2276.00
2018-05-09T15:01:50.300Z,2292.00
2018-05-09T15:03:42.280Z,2176.00
2018-05-09T15:04:42.106Z,2148.00
2018-05-09T15:06:33.859Z,1976.00
2018-05-09T15:07:33.859Z,2040.00
2018-05-09T15:09:25.695Z,2092.00
2018-05-09T15:10:25.580Z,2136.00
2018-05-09T15:12:17.402Z,1908.00
2018-05-09T15:13:17.405Z,1500.00
2018-05-09T15:15:09.168Z,1852.00
2018-05-09T15:16:09.098Z,2012.00
2018-05-09T15:18:00.897Z,2184.00
2018-05-09T15:19:00.849Z,2264.00
2018-05-09T15:20:52.709Z,2188.00
2018-05-09T15:21:52.773Z,2132.00
2018-05-09T15:23:44.387Z,2060.00
2018-05-09T15:24:44.332Z,1952.00
2018-05-09T15:26:36.224Z,1948.00
2018-05-09T15:27:36.048Z,1824.00
2018-05-09T15:29:27.881Z,1776.00
2018-05-09T15:30:27.784Z,1776.00
2018-05-09T15:32:19.629Z,1836.00
2018-05-09T15:33:19.541Z,1800.00
2018-05-09T15:35:11.391Z,1624.00
2018-05-09T15:36:11.357Z,1888.00
2018-05-09T15:38:03.443Z,1820.00
2018-05-09T15:39:03.234Z,1836.00
2018-05-09T15:40:54.894Z,1884.00
2018-05-09T15:41:54.839Z,1948.00
2018-05-09T15:43:46.866Z,2132.00
2018-05-09T15:44:46.699Z,2268.00
2018-05-09T15:46:38.654Z,2240.00
2018-05-09T15:47:38.472Z,2424.00
2018-05-09T15:49:30.282Z,2464.00
2018-05-09T15:50:30.187Z,2392.00
2018-05-09T15:52:22.157Z,2228.00
2018-05-09T15:53:21.957Z,1912.00
2018-05-09T15:55:13.813Z,1920.00
2018-05-09T15:56:13.731Z,2112.00
2018-05-09T15:58:05.516Z,1896.00
2018-05-09T15:59:05.412Z,1840.00
2018-05-09T16:00:57.285Z,2056.00
2018-05-09T16:01:57.240Z,2228.00
2018-05-09T16:03:48.982Z,2288.00
2018-05-09T16:04:48.904Z,2272.00
2018-05-09T16:06:40.776Z,2180.00
2018-05-09T16:07:40.693Z,2012.00
2018-05-09T16:09:32.527Z,1804.00
2018-05-09T16:10:32.569Z,1676.00
2018-05-09T16:12:24.320Z,1516.00
2018-05-09T16:13:24.226Z,1504.00
2018-05-09T16:15:16.009Z,1528.00
2018-05-09T16:16:15.936Z,1608.00
2018-05-09T16:18:07.854Z,1436.00
2018-05-09T16:19:07.769Z,1432.00
2018-05-09T16:20:59.650Z,1268.00
2018-05-09T16:21:59.579Z,1340.00
2018-05-09T16:23:51.376Z,1156.00
2018-05-09T16:24:51.299Z,1300.00
2018-05-09T16:26:43.078Z,1156.00
2018-05-09T16:27:43.019Z,1132.00
2018-05-09T16:29:34.857Z,1328.00
2018-05-09T16:30:34.797Z,1316.00
2018-05-09T16:32:26.649Z,1320.00
2018-05-09T16:33:26.509Z,1316.00
2018-05-09T16:35:18.309Z,1312.00
2018-05-09T16:36:18.251Z,1296.00
2018-05-09T16:38:10.127Z,1292.00
2018-05-09T16:39:09.994Z,1280.00
2018-05-09T16:41:01.994Z,1272.00
2018-05-09T16:42:01.981Z,1260.00
2018-05-09T16:43:53.776Z,1244.00
2018-05-09T16:44:53.715Z,1236.00
2018-05-09T16:46:45.499Z,1216.00
2018-05-09T16:47:45.400Z,1212.00
2018-05-09T16:49:37.201Z,1216.00
2018-05-09T16:50:37.129Z,1208.00
2018-05-09T16:52:29.000Z,1204.00
2018-05-09T16:53:28.857Z,1200.00
2018-05-09T16:55:20.670Z,1184.00
2018-05-09T16:56:20.619Z,1188.00
2018-05-09T16:58:12.438Z,1176.00
2018-05-09T16:59:12.343Z,1164.00
2018-05-09T17:01:04.122Z,1156.00
2018-05-09T17:02:04.064Z,1152.00
2018-05-09T17:03:55.934Z,1140.00
2018-05-09T17:04:55.863Z,1148.00
2018-05-09T17:06:47.645Z,1132.00
2018-05-09T17:07:47.617Z,1120.00
2018-05-09T17:09:39.432Z,1112.00
2018-05-09T17:10:39.409Z,1116.00
2018-05-09T17:12:31.271Z,1108.00
2018-05-09T17:13:31.200Z,1096.00
2018-05-09T17:15:23.028Z,1124.00
2018-05-09T17:16:22.911Z,1108.00
2018-05-09T17:18:14.727Z,1084.00
2018-05-09T17:19:14.723Z,1064.00
2018-05-09T17:21:06.431Z,1032.00
2018-05-09T17:22:06.373Z,1016.00
2018-05-09T17:23:58.195Z,1000.00
2018-05-09T17:24:58.171Z,980.00
2018-05-09T17:26:49.910Z,972.00
2018-05-09T17:27:49.853Z,980.00
2018-05-09T17:29:41.804Z,996.00
2018-05-09T17:30:41.817Z,1004.00